PGT966K LTFJ-LTAC
Flight info
| Callsign | PGT966K |
|---|---|
| Flight time | 0h 38m |
| Altitude | 29000 |
| Route | VICEN1K/24R VICEN DCT EVLIG DCT LATGA |
| Aircraft | A20N/M-SDE2E3FGHIRWXY/LB1 |
Departure
| Time | 2026-05-07 16:05 |
|---|---|
| Airport | Istanbul Sabiha Gökçen International Airport (LTFJ) |
Arrival
| Time | 2026-05-07 16:43 |
|---|---|
| Airport | Esenboğa International Airport (LTAC) |
| Time | Latitude | Longitude | Altitude | Speed | Heading |
|---|---|---|---|---|---|
| 2026-05-07 15:43 | 40.90631 | 29.32175 | 311 ft | 0 kts | 154° |
| 2026-05-07 15:53 | 40.90631 | 29.32174 | 311 ft | 0 kts | 154° |
| 2026-05-07 15:56 | 40.90643 | 29.32167 | 311 ft | 4 kts | 153° |
| 2026-05-07 15:56 | 40.90667 | 29.32150 | 311 ft | 4 kts | 148° |
| 2026-05-07 15:56 | 40.90688 | 29.32129 | 310 ft | 4 kts | 127° |
| 2026-05-07 15:56 | 40.90695 | 29.32104 | 310 ft | 1 kts | 64° |
| 2026-05-07 15:57 | 40.90695 | 29.32103 | 310 ft | 0 kts | 64° |
| 2026-05-07 15:59 | 40.90697 | 29.32110 | 310 ft | 3 kts | 64° |
| 2026-05-07 15:59 | 40.90720 | 29.32172 | 311 ft | 7 kts | 64° |
| 2026-05-07 15:59 | 40.90732 | 29.32208 | 311 ft | 6 kts | 69° |
| 2026-05-07 16:00 | 40.90729 | 29.32256 | 311 ft | 5 kts | 115° |
| 2026-05-07 16:00 | 40.90706 | 29.32281 | 311 ft | 5 kts | 151° |
| 2026-05-07 16:00 | 40.90664 | 29.32307 | 311 ft | 6 kts | 154° |
| 2026-05-07 16:00 | 40.90629 | 29.32331 | 311 ft | 5 kts | 148° |
| 2026-05-07 16:01 | 40.90607 | 29.32375 | 311 ft | 6 kts | 111° |
| 2026-05-07 16:01 | 40.90582 | 29.32417 | 311 ft | 5 kts | 139° |
| 2026-05-07 16:01 | 40.90557 | 29.32436 | 311 ft | 1 kts | 154° |
| 2026-05-07 16:01 | 40.90554 | 29.32438 | 311 ft | 0 kts | 155° |
| 2026-05-07 16:02 | 40.90548 | 29.32442 | 311 ft | 2 kts | 155° |
| 2026-05-07 16:02 | 40.90540 | 29.32446 | 310 ft | 1 kts | 154° |
| 2026-05-07 16:03 | 40.90538 | 29.32448 | 310 ft | 0 kts | 154° |
| 2026-05-07 16:03 | 40.90518 | 29.32461 | 311 ft | 7 kts | 154° |
| 2026-05-07 16:03 | 40.90486 | 29.32481 | 312 ft | 4 kts | 158° |
| 2026-05-07 16:03 | 40.90452 | 29.32489 | 312 ft | 4 kts | 179° |
| 2026-05-07 16:04 | 40.90427 | 29.32473 | 313 ft | 5 kts | 221° |
| 2026-05-07 16:04 | 40.90411 | 29.32432 | 312 ft | 11 kts | 245° |
| 2026-05-07 16:04 | 40.90262 | 29.32026 | 313 ft | 85 kts | 244° |
| 2026-05-07 16:04 | 40.89913 | 29.31078 | 311 ft | 142 kts | 244° |
| 2026-05-07 16:05 | 40.89425 | 29.29766 | 588 ft | 165 kts | 243° |
| 2026-05-07 16:05 | 40.88926 | 29.28403 | 1317 ft | 164 kts | 245° |
| 2026-05-07 16:05 | 40.88438 | 29.27053 | 2060 ft | 163 kts | 245° |
| 2026-05-07 16:05 | 40.87928 | 29.25631 | 2491 ft | 181 kts | 246° |
| 2026-05-07 16:06 | 40.87358 | 29.24031 | 2794 ft | 204 kts | 246° |
| 2026-05-07 16:06 | 40.86726 | 29.22257 | 3163 ft | 225 kts | 246° |
| 2026-05-07 16:06 | 40.86029 | 29.20310 | 3717 ft | 241 kts | 246° |
| 2026-05-07 16:06 | 40.85297 | 29.18280 | 3959 ft | 245 kts | 246° |
| 2026-05-07 16:07 | 40.84455 | 29.16329 | 4010 ft | 247 kts | 229° |
| 2026-05-07 16:07 | 40.82960 | 29.15219 | 4015 ft | 258 kts | 192° |
| 2026-05-07 16:07 | 40.81103 | 29.15513 | 4571 ft | 278 kts | 163° |
| 2026-05-07 16:07 | 40.79326 | 29.16570 | 5547 ft | 282 kts | 154° |
| 2026-05-07 16:08 | 40.77610 | 29.17854 | 6442 ft | 285 kts | 152° |
| 2026-05-07 16:08 | 40.75894 | 29.19193 | 6856 ft | 290 kts | 148° |
| 2026-05-07 16:08 | 40.74419 | 29.21038 | 7688 ft | 296 kts | 124° |
| 2026-05-07 16:08 | 40.73616 | 29.23536 | 8509 ft | 300 kts | 99° |
| 2026-05-07 16:09 | 40.73462 | 29.25348 | 9097 ft | 301 kts | 93° |
| 2026-05-07 16:09 | 40.73240 | 29.29052 | 9923 ft | 305 kts | 93° |
| 2026-05-07 16:09 | 40.73078 | 29.31827 | 10071 ft | 304 kts | 93° |
| 2026-05-07 16:09 | 40.72913 | 29.34629 | 10326 ft | 313 kts | 93° |
| 2026-05-07 16:10 | 40.72736 | 29.37562 | 10838 ft | 326 kts | 93° |
| 2026-05-07 16:10 | 40.72552 | 29.40566 | 11589 ft | 331 kts | 93° |
| 2026-05-07 16:10 | 40.72363 | 29.43609 | 12373 ft | 334 kts | 93° |
| 2026-05-07 16:10 | 40.72169 | 29.46673 | 13159 ft | 337 kts | 93° |
| 2026-05-07 16:11 | 40.71971 | 29.49771 | 13940 ft | 340 kts | 93° |
| 2026-05-07 16:11 | 40.71771 | 29.52895 | 14623 ft | 344 kts | 92° |
| 2026-05-07 16:11 | 40.71567 | 29.56057 | 15263 ft | 348 kts | 92° |
| 2026-05-07 16:11 | 40.71361 | 29.59249 | 15888 ft | 352 kts | 92° |
| 2026-05-07 16:12 | 40.71150 | 29.62478 | 16510 ft | 356 kts | 92° |
| 2026-05-07 16:12 | 40.70937 | 29.65751 | 17142 ft | 360 kts | 92° |
| 2026-05-07 16:12 | 40.70722 | 29.69047 | 17750 ft | 364 kts | 92° |
| 2026-05-07 16:12 | 40.70503 | 29.72392 | 18390 ft | 368 kts | 92° |
| 2026-05-07 16:13 | 40.70282 | 29.75767 | 18951 ft | 371 kts | 92° |
| 2026-05-07 16:13 | 40.70057 | 29.79168 | 19504 ft | 375 kts | 91° |
| 2026-05-07 16:13 | 40.69830 | 29.82604 | 20057 ft | 378 kts | 91° |
| 2026-05-07 16:13 | 40.69602 | 29.86076 | 20600 ft | 382 kts | 91° |
| 2026-05-07 16:14 | 40.69369 | 29.89579 | 21138 ft | 385 kts | 91° |
| 2026-05-07 16:14 | 40.69131 | 29.93114 | 21680 ft | 389 kts | 91° |
| 2026-05-07 16:14 | 40.68885 | 29.96683 | 22198 ft | 393 kts | 91° |
| 2026-05-07 16:14 | 40.68636 | 30.00282 | 22717 ft | 397 kts | 91° |
| 2026-05-07 16:15 | 40.68387 | 30.03918 | 23233 ft | 400 kts | 91° |
| 2026-05-07 16:15 | 40.68139 | 30.07584 | 23737 ft | 404 kts | 90° |
| 2026-05-07 16:15 | 40.67889 | 30.11288 | 24162 ft | 407 kts | 91° |
| 2026-05-07 16:15 | 40.67632 | 30.15022 | 24582 ft | 410 kts | 90° |
| 2026-05-07 16:16 | 40.67373 | 30.18780 | 25013 ft | 413 kts | 91° |
| 2026-05-07 16:16 | 40.67109 | 30.22567 | 25434 ft | 417 kts | 91° |
| 2026-05-07 16:16 | 40.66841 | 30.26378 | 25865 ft | 419 kts | 91° |
| 2026-05-07 16:16 | 40.66426 | 30.30196 | 26267 ft | 426 kts | 99° |
| 2026-05-07 16:17 | 40.65554 | 30.33957 | 26660 ft | 432 kts | 106° |
| 2026-05-07 16:17 | 40.64541 | 30.37696 | 27052 ft | 435 kts | 106° |
| 2026-05-07 16:17 | 40.63522 | 30.41456 | 27461 ft | 438 kts | 106° |
| 2026-05-07 16:17 | 40.62495 | 30.45245 | 27851 ft | 441 kts | 106° |
| 2026-05-07 16:18 | 40.61462 | 30.49057 | 28235 ft | 444 kts | 105° |
| 2026-05-07 16:18 | 40.60426 | 30.52892 | 28619 ft | 446 kts | 106° |
| 2026-05-07 16:18 | 40.59384 | 30.56754 | 28998 ft | 449 kts | 105° |
| 2026-05-07 16:18 | 40.58336 | 30.60640 | 29113 ft | 450 kts | 105° |
| 2026-05-07 16:19 | 40.57282 | 30.64520 | 29134 ft | 451 kts | 106° |
| 2026-05-07 16:19 | 40.55159 | 30.72280 | 29133 ft | 451 kts | 106° |
| 2026-05-07 16:20 | 40.53048 | 30.80021 | 29142 ft | 451 kts | 106° |
| 2026-05-07 16:20 | 40.50923 | 30.87770 | 29143 ft | 450 kts | 106° |
| 2026-05-07 16:21 | 40.48791 | 30.95523 | 29144 ft | 450 kts | 106° |
| 2026-05-07 16:21 | 40.46659 | 31.03268 | 29147 ft | 451 kts | 106° |
| 2026-05-07 16:22 | 40.44523 | 31.11000 | 29147 ft | 450 kts | 106° |
| 2026-05-07 16:22 | 40.42384 | 31.18731 | 29152 ft | 451 kts | 106° |
| 2026-05-07 16:23 | 40.40241 | 31.26446 | 29149 ft | 450 kts | 106° |
| 2026-05-07 16:23 | 40.38089 | 31.34153 | 29148 ft | 450 kts | 106° |
| 2026-05-07 16:24 | 40.35932 | 31.41852 | 29156 ft | 450 kts | 107° |
| 2026-05-07 16:24 | 40.34847 | 31.45711 | 28969 ft | 450 kts | 107° |
| 2026-05-07 16:24 | 40.33771 | 31.49529 | 28475 ft | 445 kts | 107° |
| 2026-05-07 16:24 | 40.32702 | 31.53320 | 27930 ft | 442 kts | 107° |
| 2026-05-07 16:25 | 40.31642 | 31.57078 | 27400 ft | 438 kts | 107° |
| 2026-05-07 16:25 | 40.30590 | 31.60808 | 26892 ft | 435 kts | 107° |
| 2026-05-07 16:25 | 40.29546 | 31.64510 | 26373 ft | 432 kts | 107° |
| 2026-05-07 16:25 | 40.28509 | 31.68181 | 25902 ft | 427 kts | 107° |
| 2026-05-07 16:26 | 40.27480 | 31.71812 | 25406 ft | 424 kts | 107° |
| 2026-05-07 16:26 | 40.26457 | 31.75412 | 24940 ft | 421 kts | 107° |
| 2026-05-07 16:26 | 40.25441 | 31.78992 | 24453 ft | 418 kts | 107° |
| 2026-05-07 16:26 | 40.24759 | 31.81396 | 24133 ft | 416 kts | 107° |
| 2026-05-07 16:27 | 40.23427 | 31.86078 | 23474 ft | 413 kts | 107° |
| 2026-05-07 16:27 | 40.22429 | 31.89584 | 22998 ft | 408 kts | 107° |
| 2026-05-07 16:27 | 40.21442 | 31.93049 | 22522 ft | 404 kts | 107° |
| 2026-05-07 16:27 | 40.20461 | 31.96476 | 22050 ft | 400 kts | 108° |
| 2026-05-07 16:28 | 40.19484 | 31.99874 | 21570 ft | 398 kts | 108° |
| 2026-05-07 16:28 | 40.18513 | 32.03249 | 21098 ft | 395 kts | 108° |
| 2026-05-07 16:28 | 40.17701 | 32.06656 | 20613 ft | 390 kts | 99° |
| 2026-05-07 16:28 | 40.17361 | 32.10148 | 20144 ft | 384 kts | 88° |
| 2026-05-07 16:29 | 40.17480 | 32.13603 | 19686 ft | 378 kts | 81° |
| 2026-05-07 16:29 | 40.17723 | 32.17019 | 19229 ft | 376 kts | 82° |
| 2026-05-07 16:29 | 40.17952 | 32.20425 | 18727 ft | 376 kts | 83° |
| 2026-05-07 16:29 | 40.18177 | 32.23849 | 18137 ft | 378 kts | 83° |
| 2026-05-07 16:30 | 40.18396 | 32.27242 | 17824 ft | 371 kts | 83° |
| 2026-05-07 16:30 | 40.18663 | 32.30568 | 17431 ft | 365 kts | 78° |
| 2026-05-07 16:30 | 40.19137 | 32.33816 | 16987 ft | 362 kts | 77° |
| 2026-05-07 16:30 | 40.19640 | 32.37029 | 16538 ft | 360 kts | 76° |
| 2026-05-07 16:31 | 40.20146 | 32.40227 | 16117 ft | 358 kts | 76° |
| 2026-05-07 16:31 | 40.20644 | 32.43355 | 15960 ft | 342 kts | 76° |
| 2026-05-07 16:31 | 40.21115 | 32.46318 | 15736 ft | 325 kts | 76° |
| 2026-05-07 16:31 | 40.21570 | 32.49176 | 15289 ft | 316 kts | 76° |
| 2026-05-07 16:32 | 40.22005 | 32.51911 | 15161 ft | 298 kts | 76° |
| 2026-05-07 16:32 | 40.22416 | 32.54501 | 14985 ft | 284 kts | 76° |
| 2026-05-07 16:32 | 40.22816 | 32.57008 | 14615 ft | 279 kts | 76° |
| 2026-05-07 16:32 | 40.23207 | 32.59456 | 14324 ft | 272 kts | 76° |
| 2026-05-07 16:33 | 40.23468 | 32.61087 | 14078 ft | 270 kts | 76° |
| 2026-05-07 16:33 | 40.23982 | 32.64274 | 13523 ft | 273 kts | 76° |
| 2026-05-07 16:33 | 40.24381 | 32.66716 | 13129 ft | 275 kts | 76° |
| 2026-05-07 16:33 | 40.24781 | 32.69154 | 12731 ft | 272 kts | 76° |
| 2026-05-07 16:34 | 40.25181 | 32.71575 | 12341 ft | 266 kts | 76° |
| 2026-05-07 16:34 | 40.25441 | 32.73135 | 12090 ft | 262 kts | 76° |
| 2026-05-07 16:34 | 40.25954 | 32.76214 | 11580 ft | 256 kts | 76° |
| 2026-05-07 16:34 | 40.26350 | 32.78464 | 11208 ft | 251 kts | 71° |
| 2026-05-07 16:35 | 40.27008 | 32.80547 | 10840 ft | 246 kts | 63° |
| 2026-05-07 16:35 | 40.27773 | 32.82523 | 10477 ft | 242 kts | 62° |
| 2026-05-07 16:35 | 40.28540 | 32.84444 | 10128 ft | 242 kts | 62° |
| 2026-05-07 16:35 | 40.29332 | 32.86408 | 9740 ft | 245 kts | 61° |
| 2026-05-07 16:36 | 40.30127 | 32.88378 | 9482 ft | 243 kts | 61° |
| 2026-05-07 16:36 | 40.30708 | 32.89658 | 9306 ft | 241 kts | 54° |
| 2026-05-07 16:36 | 40.32021 | 32.91977 | 8963 ft | 238 kts | 51° |
| 2026-05-07 16:36 | 40.32701 | 32.93132 | 8815 ft | 235 kts | 50° |
| 2026-05-07 16:37 | 40.33762 | 32.94742 | 8684 ft | 232 kts | 47° |
| 2026-05-07 16:37 | 40.34849 | 32.96308 | 8558 ft | 232 kts | 47° |
| 2026-05-07 16:37 | 40.35733 | 32.98064 | 8335 ft | 233 kts | 71° |
| 2026-05-07 16:37 | 40.35912 | 33.00141 | 8084 ft | 231 kts | 99° |
| 2026-05-07 16:38 | 40.35336 | 33.02076 | 7832 ft | 229 kts | 128° |
| 2026-05-07 16:38 | 40.34154 | 33.03432 | 7585 ft | 227 kts | 153° |
| 2026-05-07 16:38 | 40.32758 | 33.04418 | 7348 ft | 228 kts | 154° |
| 2026-05-07 16:38 | 40.31367 | 33.05400 | 7119 ft | 226 kts | 153° |
| 2026-05-07 16:39 | 40.29985 | 33.06380 | 6900 ft | 225 kts | 153° |
| 2026-05-07 16:39 | 40.28611 | 33.07355 | 6685 ft | 225 kts | 153° |
| 2026-05-07 16:39 | 40.27232 | 33.08329 | 6435 ft | 225 kts | 153° |
| 2026-05-07 16:39 | 40.25844 | 33.09216 | 6160 ft | 219 kts | 164° |
| 2026-05-07 16:40 | 40.24345 | 33.09519 | 5671 ft | 220 kts | 185° |
| 2026-05-07 16:40 | 40.22906 | 33.09105 | 5359 ft | 207 kts | 205° |
| 2026-05-07 16:40 | 40.21722 | 33.08171 | 5110 ft | 192 kts | 218° |
| 2026-05-07 16:40 | 40.20678 | 33.07172 | 4842 ft | 178 kts | 218° |
| 2026-05-07 16:41 | 40.19728 | 33.06265 | 4563 ft | 160 kts | 218° |
| 2026-05-07 16:41 | 40.18855 | 33.05430 | 4323 ft | 152 kts | 218° |
| 2026-05-07 16:41 | 40.18292 | 33.04891 | 4175 ft | 150 kts | 218° |
| 2026-05-07 16:41 | 40.17171 | 33.03820 | 3892 ft | 149 kts | 218° |
| 2026-05-07 16:42 | 40.16339 | 33.03025 | 3711 ft | 149 kts | 218° |
| 2026-05-07 16:42 | 40.15509 | 33.02232 | 3522 ft | 147 kts | 217° |
| 2026-05-07 16:42 | 40.14686 | 33.01444 | 3322 ft | 146 kts | 217° |
| 2026-05-07 16:42 | 40.13865 | 33.00664 | 3138 ft | 141 kts | 217° |
| 2026-05-07 16:43 | 40.13171 | 33.00000 | 3124 ft | 101 kts | 216° |
| 2026-05-07 16:43 | 40.12741 | 32.99591 | 3122 ft | 52 kts | 216° |
| 2026-05-07 16:43 | 40.12512 | 32.99372 | 3120 ft | 31 kts | 216° |
| 2026-05-07 16:43 | 40.12352 | 32.99243 | 3118 ft | 24 kts | 201° |
| 2026-05-07 16:44 | 40.12205 | 32.99202 | 3117 ft | 21 kts | 186° |
| 2026-05-07 16:44 | 40.12065 | 32.99183 | 3116 ft | 15 kts | 186° |
| 2026-05-07 16:44 | 40.11971 | 32.99158 | 3115 ft | 13 kts | 203° |
| 2026-05-07 16:44 | 40.11905 | 32.99098 | 3114 ft | 12 kts | 217° |
| 2026-05-07 16:45 | 40.11844 | 32.99045 | 3114 ft | 9 kts | 202° |
| 2026-05-07 16:45 | 40.11791 | 32.99065 | 3113 ft | 8 kts | 135° |
| 2026-05-07 16:45 | 40.11751 | 32.99111 | 3113 ft | 7 kts | 148° |
| 2026-05-07 16:45 | 40.11712 | 32.99130 | 3113 ft | 5 kts | 164° |
| 2026-05-07 16:46 | 40.11682 | 32.99142 | 3113 ft | 4 kts | 157° |
| 2026-05-07 16:46 | 40.11661 | 32.99157 | 3113 ft | 4 kts | 150° |
| 2026-05-07 16:46 | 40.11642 | 32.99173 | 3113 ft | 3 kts | 149° |
| 2026-05-07 16:46 | 40.11629 | 32.99182 | 3113 ft | 1 kts | 150° |
| 2026-05-07 16:47 | 40.11627 | 32.99184 | 3113 ft | 0 kts | 150° |